createdAt,value
2022-12-03T00:01:21.417Z,4.99
2022-12-03T00:04:23.242Z,5.69
2022-12-03T00:07:25.166Z,5.09
2022-12-03T00:10:27.134Z,4.94
2022-12-03T00:13:28.945Z,6.24
2022-12-03T00:16:30.781Z,5.47
2022-12-03T00:19:32.732Z,5.25
2022-12-03T00:22:34.624Z,5.02
2022-12-03T00:25:36.467Z,5.31
2022-12-03T00:28:38.650Z,5.16
2022-12-03T00:31:42.138Z,6.00
2022-12-03T00:34:44.024Z,4.79
2022-12-03T00:37:45.820Z,5.15
2022-12-03T00:40:47.642Z,5.14
2022-12-03T00:43:49.508Z,4.62
2022-12-03T00:46:51.529Z,5.54
2022-12-03T00:49:53.431Z,5.32
2022-12-03T00:52:55.295Z,5.42
2022-12-03T00:55:57.188Z,5.58
2022-12-03T00:58:58.994Z,5.64
2022-12-03T01:02:00.896Z,6.26
2022-12-03T01:05:02.813Z,6.06
2022-12-03T01:08:04.796Z,5.55
2022-12-03T01:11:26.572Z,5.08
2022-12-03T01:14:28.402Z,5.92
2022-12-03T01:17:30.209Z,5.60
2022-12-03T01:20:32.086Z,5.33
2022-12-03T01:23:33.867Z,4.86
2022-12-03T01:26:35.712Z,6.16
2022-12-03T01:29:37.618Z,6.11
2022-12-03T01:32:39.404Z,5.13
2022-12-03T01:35:41.232Z,5.76
2022-12-03T01:38:43.012Z,5.59
2022-12-03T01:41:44.817Z,6.14
2022-12-03T01:44:46.656Z,5.22
2022-12-03T01:47:48.532Z,5.83
2022-12-03T01:50:50.363Z,5.88
2022-12-03T01:53:52.211Z,5.59
2022-12-03T01:56:54.292Z,5.80
2022-12-03T01:59:56.504Z,5.13
2022-12-03T02:02:59.921Z,5.77
2022-12-03T02:06:01.739Z,4.98
2022-12-03T02:09:03.635Z,5.37
2022-12-03T02:12:05.647Z,5.49
2022-12-03T02:15:07.601Z,4.81
2022-12-03T02:18:09.741Z,4.74
2022-12-03T02:21:17.644Z,4.99
2022-12-03T02:24:38.409Z,5.69
2022-12-03T02:27:40.456Z,4.68
2022-12-03T02:30:42.342Z,4.40
2022-12-03T02:33:44.161Z,4.92
2022-12-03T02:36:45.976Z,4.76
2022-12-03T02:39:48.819Z,4.77
2022-12-03T02:42:51.345Z,4.80
2022-12-03T02:45:53.960Z,5.31
2022-12-03T02:48:55.768Z,5.11
2022-12-03T02:51:57.572Z,4.59
2022-12-03T02:54:59.368Z,5.42
2022-12-03T02:58:01.259Z,5.14
2022-12-03T03:01:03.186Z,5.13
2022-12-03T03:04:05.246Z,4.88
2022-12-03T03:07:07.132Z,4.86
2022-12-03T03:10:09.665Z,5.10
2022-12-03T03:13:12.978Z,4.34
2022-12-03T03:16:14.850Z,4.78
2022-12-03T03:19:16.665Z,5.38
2022-12-03T03:22:18.681Z,5.16
2022-12-03T03:25:24.718Z,4.98
2022-12-03T03:28:26.627Z,5.26
2022-12-03T03:31:28.522Z,4.57
2022-12-03T03:34:31.064Z,5.39
2022-12-03T03:37:32.912Z,5.66
2022-12-03T03:40:34.777Z,5.48
2022-12-03T03:43:36.579Z,5.29
2022-12-03T03:46:38.517Z,5.69
2022-12-03T03:49:40.380Z,5.50
2022-12-03T03:52:42.235Z,5.47
2022-12-03T03:55:44.084Z,5.62
2022-12-03T03:58:45.979Z,5.66
2022-12-03T04:01:47.841Z,6.03
2022-12-03T04:04:49.666Z,4.89
2022-12-03T04:07:51.604Z,5.13
2022-12-03T04:11:12.216Z,5.42
2022-12-03T04:14:14.065Z,5.61
2022-12-03T04:17:15.916Z,5.61
2022-12-03T04:20:17.758Z,5.42
2022-12-03T04:23:19.578Z,5.84
2022-12-03T04:26:40.080Z,5.83
2022-12-03T04:29:41.877Z,6.21
2022-12-03T04:33:02.462Z,5.76
2022-12-03T04:36:04.704Z,4.67
2022-12-03T04:39:06.585Z,4.95
2022-12-03T04:42:08.461Z,5.05
2022-12-03T04:45:10.499Z,4.83
2022-12-03T04:48:12.471Z,5.50
2022-12-03T04:51:14.318Z,5.81
2022-12-03T04:54:16.115Z,5.87
2022-12-03T04:57:17.889Z,6.01
2022-12-03T05:00:19.707Z,6.05
2022-12-03T05:03:21.514Z,6.08
2022-12-03T05:06:23.311Z,6.34
2022-12-03T05:09:25.160Z,6.00
2022-12-03T05:12:27.074Z,6.00
2022-12-03T05:15:28.900Z,5.39
2022-12-03T05:18:30.700Z,4.96
2022-12-03T05:21:32.556Z,5.02
2022-12-03T05:24:34.415Z,5.73
2022-12-03T05:27:36.214Z,5.75
2022-12-03T05:30:38.057Z,6.22
2022-12-03T05:33:44.148Z,5.56
2022-12-03T05:36:46.445Z,6.03
2022-12-03T05:39:48.277Z,4.89
2022-12-03T05:43:01.236Z,4.46
2022-12-03T05:46:03.143Z,4.68
2022-12-03T05:49:05.049Z,5.22
2022-12-03T05:52:06.861Z,4.93
2022-12-03T05:55:08.808Z,4.74
2022-12-03T05:58:11.721Z,5.15
2022-12-03T06:01:13.573Z,5.76
2022-12-03T06:04:15.367Z,5.66
2022-12-03T06:07:17.310Z,5.72
2022-12-03T06:10:20.704Z,5.48
2022-12-03T06:13:22.556Z,6.60
2022-12-03T06:16:24.517Z,6.38
2022-12-03T06:19:26.371Z,5.63
2022-12-03T06:22:28.213Z,5.43
2022-12-03T06:25:29.997Z,5.94
2022-12-03T06:28:31.844Z,5.44
2022-12-03T06:31:33.707Z,6.21
2022-12-03T06:34:35.554Z,5.64
2022-12-03T06:37:37.470Z,5.10
2022-12-03T06:40:39.356Z,4.49
2022-12-03T06:43:41.144Z,5.32
2022-12-03T06:46:43.034Z,5.87
2022-12-03T06:49:44.944Z,5.91
2022-12-03T06:52:46.802Z,6.23
2022-12-03T06:55:48.609Z,5.38
2022-12-03T06:58:50.481Z,4.81
2022-12-03T07:01:52.370Z,5.15
2022-12-03T07:04:54.570Z,5.76
2022-12-03T07:07:57.024Z,5.15
2022-12-03T07:10:58.913Z,5.90
2022-12-03T07:14:05.023Z,6.61
2022-12-03T07:17:07.527Z,5.66
2022-12-03T07:20:09.548Z,6.30
2022-12-03T07:23:11.615Z,5.89
2022-12-03T07:26:13.486Z,6.12
2022-12-03T07:29:15.284Z,6.22
2022-12-03T07:32:17.083Z,6.88
2022-12-03T07:35:18.966Z,6.17
2022-12-03T07:38:20.827Z,5.50
2022-12-03T07:41:22.864Z,6.22
2022-12-03T07:44:24.749Z,6.66
2022-12-03T07:47:26.603Z,6.05
2022-12-03T07:50:28.452Z,5.57
2022-12-03T07:53:30.264Z,6.70
2022-12-03T07:56:32.069Z,6.78
2022-12-03T07:59:33.867Z,5.89
2022-12-03T08:02:36.433Z,5.82
2022-12-03T08:05:38.324Z,7.66
2022-12-03T08:08:40.172Z,7.48
2022-12-03T08:11:42.401Z,6.92
2022-12-03T08:14:44.393Z,6.56
2022-12-03T08:17:47.167Z,7.17
2022-12-03T08:20:49.831Z,6.60
2022-12-03T08:23:51.619Z,6.20
2022-12-03T08:26:53.443Z,5.77
2022-12-03T08:29:55.253Z,6.44
2022-12-03T08:32:57.937Z,6.33
2022-12-03T08:35:59.761Z,5.08
2022-12-03T08:39:04.696Z,6.29
2022-12-03T08:42:30.966Z,6.92
2022-12-03T08:45:39.847Z,6.54
2022-12-03T08:48:47.028Z,6.50
2022-12-03T08:51:53.793Z,6.53
2022-12-03T08:54:56.253Z,6.94
2022-12-03T08:57:58.629Z,6.76
2022-12-03T09:01:03.119Z,7.52
2022-12-03T09:04:15.396Z,7.37
2022-12-03T09:07:17.341Z,7.21
2022-12-03T09:10:19.181Z,8.13
2022-12-03T09:13:21.132Z,6.87
2022-12-03T09:16:23.035Z,7.63
2022-12-03T09:19:25.604Z,8.53
2022-12-03T09:22:27.431Z,7.22
2022-12-03T09:25:29.262Z,6.86
2022-12-03T09:28:31.079Z,8.30
2022-12-03T09:31:34.333Z,8.30
2022-12-03T09:34:36.307Z,8.51
2022-12-03T09:37:38.214Z,6.54
2022-12-03T09:40:40.106Z,7.36
2022-12-03T09:47:04.109Z,8.14
2022-12-03T09:50:06.074Z,8.43
2022-12-03T09:53:09.272Z,7.60
2022-12-03T09:56:13.684Z,8.24
2022-12-03T09:59:15.980Z,7.77
2022-12-03T10:02:17.880Z,7.51
2022-12-03T10:05:20.179Z,7.45
2022-12-03T10:08:22.509Z,8.58
2022-12-03T10:11:25.059Z,8.89
2022-12-03T10:14:26.959Z,8.64
2022-12-03T10:17:28.775Z,8.80
2022-12-03T10:20:30.657Z,8.97
2022-12-03T10:23:32.477Z,10.26
2022-12-03T10:26:43.488Z,11.02
2022-12-03T10:29:46.008Z,9.44
2022-12-03T10:32:49.002Z,9.21
2022-12-03T10:35:50.818Z,11.04
2022-12-03T10:39:14.872Z,10.40
2022-12-03T10:42:18.809Z,11.13
2022-12-03T10:45:22.654Z,10.67
2022-12-03T10:48:30.457Z,9.43
2022-12-03T10:51:32.302Z,10.44
2022-12-03T10:54:34.250Z,9.57
2022-12-03T10:57:36.852Z,10.52
2022-12-03T11:00:39.897Z,10.61
2022-12-03T11:03:41.774Z,12.01
2022-12-03T11:06:43.633Z,11.74
2022-12-03T11:09:46.485Z,11.26
2022-12-03T11:13:07.141Z,9.49
2022-12-03T11:16:08.966Z,9.66
2022-12-03T11:19:13.514Z,10.19
2022-12-03T11:22:15.362Z,11.55
2022-12-03T11:25:29.447Z,11.85
2022-12-03T11:28:31.797Z,11.65
2022-12-03T11:31:38.897Z,12.07
2022-12-03T11:34:41.001Z,12.52
2022-12-03T11:37:42.786Z,12.03
2022-12-03T11:40:59.980Z,11.95
2022-12-03T11:44:04.104Z,12.05
2022-12-03T11:47:08.798Z,12.11
2022-12-03T11:50:20.652Z,12.36
2022-12-03T11:53:23.134Z,12.63
2022-12-03T11:56:25.912Z,11.39
2022-12-03T11:59:27.802Z,12.59
2022-12-03T12:02:29.658Z,11.62
2022-12-03T12:05:32.716Z,12.77
2022-12-03T12:08:35.465Z,11.98
2022-12-03T12:11:38.785Z,12.56
2022-12-03T12:14:40.595Z,12.91
2022-12-03T12:17:42.505Z,12.82
2022-12-03T12:20:44.367Z,13.34
2022-12-03T12:23:46.173Z,13.30
2022-12-03T12:26:51.502Z,13.26
2022-12-03T12:29:54.790Z,12.80
2022-12-03T12:32:56.817Z,11.53
2022-12-03T12:35:58.713Z,11.83
2022-12-03T12:39:00.544Z,11.15
2022-12-03T12:42:02.964Z,10.52
2022-12-03T12:45:15.024Z,11.27
2022-12-03T12:48:16.979Z,11.88
2022-12-03T12:51:18.843Z,11.56
2022-12-03T12:54:20.753Z,10.66
2022-12-03T12:57:23.007Z,11.02
2022-12-03T13:00:24.950Z,10.20
2022-12-03T13:03:28.014Z,10.17
2022-12-03T13:06:30.523Z,10.28
2022-12-03T13:09:32.413Z,10.34
2022-12-03T13:12:34.205Z,10.35
2022-12-03T13:15:49.287Z,9.13
2022-12-03T13:18:55.033Z,9.27
2022-12-03T13:21:57.869Z,8.27
2022-12-03T13:24:59.758Z,8.64
2022-12-03T13:28:01.616Z,9.54
2022-12-03T13:31:15.553Z,9.92
2022-12-03T13:34:25.209Z,8.44
2022-12-03T13:37:27.128Z,9.77
2022-12-03T13:40:34.999Z,9.63
2022-12-03T13:43:44.329Z,9.49
2022-12-03T13:46:47.010Z,9.96
2022-12-03T13:49:51.537Z,9.92
2022-12-03T13:52:53.581Z,9.25
2022-12-03T13:55:57.292Z,9.56
2022-12-03T13:59:00.361Z,10.04
2022-12-03T14:02:02.283Z,9.74
2022-12-03T14:05:04.274Z,9.22
2022-12-03T14:08:06.268Z,9.35
2022-12-03T14:11:08.249Z,9.84
2022-12-03T14:14:10.218Z,10.16
2022-12-03T14:17:12.352Z,10.27
2022-12-03T14:20:15.001Z,9.85
2022-12-03T14:23:16.844Z,9.27
2022-12-03T14:26:18.677Z,9.07
2022-12-03T14:29:20.613Z,9.74
2022-12-03T14:32:22.689Z,10.20
2022-12-03T14:35:24.588Z,10.01
2022-12-03T14:38:26.439Z,10.33
2022-12-03T14:41:47.029Z,9.89
2022-12-03T14:44:49.537Z,9.63
2022-12-03T14:47:51.369Z,8.86
2022-12-03T14:50:53.386Z,8.60
2022-12-03T14:53:55.244Z,9.10
2022-12-03T14:56:57.041Z,8.98
2022-12-03T14:59:58.979Z,9.48
2022-12-03T15:03:00.844Z,8.95
2022-12-03T15:06:02.787Z,9.62
2022-12-03T15:09:04.702Z,9.26
2022-12-03T15:12:06.779Z,9.14
2022-12-03T15:15:09.067Z,9.56
2022-12-03T15:18:10.912Z,9.28
2022-12-03T15:21:12.805Z,9.56
2022-12-03T15:24:14.668Z,8.71
2022-12-03T15:27:16.604Z,9.40
2022-12-03T15:30:20.437Z,9.12
2022-12-03T15:33:22.433Z,9.00
2022-12-03T15:36:24.333Z,8.83
2022-12-03T15:39:26.211Z,8.97
2022-12-03T15:42:29.736Z,9.33
2022-12-03T15:45:31.568Z,8.97
2022-12-03T15:48:34.160Z,8.89
2022-12-03T15:51:36.017Z,8.55
2022-12-03T15:54:37.856Z,8.67
2022-12-03T15:57:39.703Z,8.06
2022-12-03T16:00:41.544Z,8.58
2022-12-03T16:03:43.360Z,9.02
2022-12-03T16:06:45.188Z,9.24
2022-12-03T16:09:47.073Z,9.03
2022-12-03T16:12:49.268Z,9.35
2022-12-03T16:15:51.256Z,9.61
2022-12-03T16:18:53.082Z,9.41
2022-12-03T16:21:54.876Z,9.23
2022-12-03T16:24:56.753Z,9.43
2022-12-03T16:27:58.596Z,9.10
2022-12-03T16:31:00.640Z,9.10
2022-12-03T16:34:02.659Z,9.45
2022-12-03T16:37:04.866Z,9.34
2022-12-03T16:40:07.311Z,8.63
2022-12-03T16:43:10.625Z,9.07
2022-12-03T16:46:15.403Z,9.14
2022-12-03T16:49:17.315Z,9.52
2022-12-03T16:52:19.107Z,8.98
2022-12-03T16:55:20.906Z,8.44
2022-12-03T16:58:22.745Z,8.20
2022-12-03T17:01:24.633Z,7.95
2022-12-03T17:04:26.477Z,8.50
2022-12-03T17:07:28.397Z,8.79
2022-12-03T17:10:30.353Z,9.22
2022-12-03T17:13:32.250Z,8.77
2022-12-03T17:16:34.218Z,8.54
2022-12-03T17:19:36.084Z,9.24
2022-12-03T17:22:38.017Z,9.23
2022-12-03T17:25:39.882Z,8.83
2022-12-03T17:28:41.738Z,9.02
2022-12-03T17:31:43.626Z,8.88
2022-12-03T17:34:45.496Z,9.14
2022-12-03T17:37:47.392Z,8.98
2022-12-03T17:40:49.235Z,8.92
2022-12-03T17:43:51.125Z,8.71
2022-12-03T17:46:53.099Z,9.10
2022-12-03T17:49:55.376Z,9.17
2022-12-03T17:52:57.982Z,9.14
2022-12-03T17:55:59.895Z,8.72
2022-12-03T17:59:01.732Z,8.68
2022-12-03T18:02:03.684Z,8.79
2022-12-03T18:05:05.717Z,8.45
2022-12-03T18:08:07.648Z,8.20
2022-12-03T18:11:09.503Z,8.57
2022-12-03T18:14:12.718Z,8.62
2022-12-03T18:17:14.593Z,7.56
2022-12-03T18:20:16.406Z,8.29
2022-12-03T18:23:18.327Z,7.52
2022-12-03T18:26:20.245Z,7.42
2022-12-03T18:29:22.059Z,7.67
2022-12-03T18:32:29.245Z,5.95
2022-12-03T18:35:31.631Z,6.54
2022-12-03T18:38:33.510Z,6.67
2022-12-03T18:41:35.783Z,6.28
2022-12-03T18:44:37.623Z,7.17
2022-12-03T18:47:39.582Z,7.63
2022-12-03T18:50:41.529Z,7.64
2022-12-03T18:53:43.576Z,7.57
2022-12-03T18:56:45.404Z,6.84
2022-12-03T18:59:47.317Z,7.65
2022-12-03T19:03:04.942Z,7.98
2022-12-03T19:06:12.919Z,7.35
2022-12-03T19:09:18.877Z,7.94
2022-12-03T19:12:20.712Z,7.56
2022-12-03T19:15:22.936Z,8.06
2022-12-03T19:18:24.923Z,8.65
2022-12-03T19:21:32.129Z,8.69
2022-12-03T19:24:35.439Z,8.53
2022-12-03T19:27:37.285Z,8.64
2022-12-03T19:30:39.183Z,8.44
2022-12-03T19:33:42.438Z,7.51
2022-12-03T19:36:44.321Z,8.24
2022-12-03T19:39:46.569Z,8.39
2022-12-03T19:42:48.409Z,7.86
2022-12-03T19:45:50.275Z,7.86
2022-12-03T19:48:53.642Z,7.94
2022-12-03T19:51:55.577Z,8.03
2022-12-03T19:54:57.404Z,7.01
2022-12-03T19:57:59.288Z,7.64
2022-12-03T20:01:11.436Z,7.59
2022-12-03T20:04:13.609Z,6.91
2022-12-03T20:07:15.461Z,7.00
2022-12-03T20:10:17.253Z,7.38
2022-12-03T20:13:19.071Z,7.74
2022-12-03T20:16:21.275Z,8.15
2022-12-03T20:19:23.120Z,8.19
2022-12-03T20:22:24.957Z,7.82
2022-12-03T20:25:26.816Z,7.96
2022-12-03T20:28:28.773Z,8.34
2022-12-03T20:31:31.157Z,8.12
2022-12-03T20:34:35.829Z,7.79
2022-12-03T20:37:37.769Z,7.82
2022-12-03T20:40:39.620Z,8.41
2022-12-03T20:43:41.715Z,8.08
2022-12-03T20:46:43.637Z,8.49
2022-12-03T20:49:45.906Z,8.40
2022-12-03T20:53:09.290Z,8.25
2022-12-03T20:56:09.756Z,8.46
2022-12-03T20:59:12.484Z,8.37
2022-12-03T21:02:14.468Z,8.19
2022-12-03T21:05:16.388Z,8.27
2022-12-03T21:08:33.998Z,8.33
2022-12-03T21:11:42.301Z,8.22
2022-12-03T21:14:44.306Z,7.87
2022-12-03T21:17:46.158Z,7.59
2022-12-03T21:20:48.046Z,7.74
2022-12-03T21:23:49.905Z,7.93
2022-12-03T21:26:51.741Z,8.15
2022-12-03T21:29:54.236Z,8.08
2022-12-03T21:32:56.262Z,7.84
2022-12-03T21:35:58.522Z,8.13
2022-12-03T21:39:00.527Z,7.31
2022-12-03T21:42:19.086Z,7.30
2022-12-03T21:45:25.074Z,7.45
2022-12-03T21:48:26.919Z,8.14
2022-12-03T21:51:28.751Z,8.05
2022-12-03T21:54:30.621Z,6.78
2022-12-03T21:57:34.816Z,7.76
2022-12-03T22:00:36.649Z,7.09
2022-12-03T22:03:38.491Z,6.63
2022-12-03T22:06:40.281Z,7.43
2022-12-03T22:09:42.120Z,7.75
2022-12-03T22:12:43.954Z,7.68
2022-12-03T22:15:45.870Z,8.38
2022-12-03T22:18:47.922Z,8.12
2022-12-03T22:21:49.761Z,7.92
2022-12-03T22:24:51.660Z,7.88
2022-12-03T22:27:53.479Z,7.99
2022-12-03T22:30:55.380Z,8.11
2022-12-03T22:33:57.283Z,8.50
2022-12-03T22:36:59.087Z,7.72
2022-12-03T22:40:00.900Z,7.99
2022-12-03T22:43:02.728Z,7.55
2022-12-03T22:46:04.969Z,7.89
2022-12-03T22:49:07.745Z,7.59
2022-12-03T22:52:09.863Z,7.42
2022-12-03T22:55:11.708Z,8.03
2022-12-03T22:58:13.551Z,7.09
2022-12-03T23:01:20.389Z,7.15
2022-12-03T23:04:22.215Z,8.06
2022-12-03T23:07:24.080Z,7.38
2022-12-03T23:10:30.893Z,8.42
2022-12-03T23:13:34.424Z,7.98
2022-12-03T23:16:36.403Z,8.33
2022-12-03T23:19:38.358Z,7.18
2022-12-03T23:22:40.712Z,7.93
2022-12-03T23:25:42.555Z,7.35
2022-12-03T23:28:44.987Z,8.56
2022-12-03T23:31:46.781Z,8.13
2022-12-03T23:34:48.778Z,8.24
2022-12-03T23:37:50.660Z,8.18
2022-12-03T23:40:53.051Z,7.79
2022-12-03T23:43:54.909Z,7.28
2022-12-03T23:46:56.771Z,7.71
2022-12-03T23:49:58.667Z,7.98
2022-12-03T23:53:00.491Z,7.12
2022-12-03T23:56:09.273Z,7.89
2022-12-03T23:59:11.106Z,8.12
